Flight Track Log - Related Links

Times and Time Zones

All times are in EDT time to prevent confusion due to time zone crossing. See the CPT8691 flight status page for this flight to view local times or setup timezone preferences in your user account.

Time Position Orientation Groundspeed Altitude Reporting Facility
EDT Latitude Longitude Course Direction KTS MPH feet Rate Location/Type
Tue 01:18:18 PM 21.3000 -157.9333 180° South 90 104 700  Level Honolulu Center
Tue 01:19:18 PM 21.2833 -157.9333 180° South 90 104 1,400 650 Climbing Honolulu Center
Tue 01:20:18 PM 21.2500 -157.9333 180° South 110 127 2,000 595 Climbing Honolulu Center
Tue 01:21:19 PM 21.2167 -157.9333 180° South 120 138 2,600 645 Climbing Honolulu Center
Tue 01:22:19 PM 21.2000 -157.9167 137° Southeast 120 138 3,300 650 Climbing Honolulu Center
Tue 01:23:19 PM 21.1667 -157.8833 137° Southeast 120 138 3,900 550 Climbing Honolulu Center
Tue 01:24:19 PM 21.1500 -157.8667 137° Southeast 120 138 4,400 550 Climbing Honolulu Center
Tue 01:25:19 PM 21.1333 -157.8333 118° Southeast 140 161 5,000 600 Climbing Honolulu Center
Tue 01:26:19 PM 21.1333 -157.8000 90° East 140 161 5,600 545 Climbing Honolulu Center
Tue 01:27:20 PM 21.1333 -157.7667 90° East 150 173 6,100 550 Climbing Honolulu Center
Tue 01:28:19 PM 21.1333 -157.7167 90° East 140 161 6,700 454 Climbing Honolulu Center
Tue 01:29:19 PM 21.1333 -157.6833 90° East 150 173 7,000 149 Climbing Honolulu Center
Tue 01:30:20 PM 21.1333 -157.6333 90° East 160 184 7,000  Level Honolulu Center
Tue 01:31:20 PM 21.1333 -157.5833 90° East 160 184 7,000  Level Honolulu Center
Tue 01:32:20 PM 21.1333 -157.5333 90° East 160 184 7,000  Level Honolulu Center
Tue 01:33:20 PM 21.1333 -157.4833 90° East 160 184 7,000  Level Honolulu Center
Tue 01:34:20 PM 21.1333 -157.4333 90° East 160 184 7,000  Level Honolulu Center
Tue 01:35:20 PM 21.1333 -157.3833 90° East 160 184 7,000  Level Honolulu Center
Tue 01:36:20 PM 21.1333 -157.3333 90° East 160 184 7,000  Level Honolulu Center
Tue 01:37:20 PM 21.1333 -157.2833 90° East 160 184 7,000  Level Honolulu Center
Tue 01:38:20 PM 21.1333 -157.2500 90° East 160 184 7,000  Level Honolulu Center
Tue 01:39:21 PM 21.1333 -157.2000 90° East 160 184 7,000 -99 Level Honolulu Center
Tue 01:40:21 PM 21.1333 -157.1500 90° East 170 196 6,800 -250 Descending Honolulu Center
Tue 01:41:21 PM 21.1000 -157.1000 126° Southeast 170 196 6,500 -150 Descending Honolulu Center
Tue 01:42:21 PM 21.0833 -157.0500 110° East 160 184 6,500 -50 Level Honolulu Center
Tue 01:43:21 PM 21.0667 -157.0167 118° Southeast 160 184 6,400 -450 Descending Honolulu Center
Tue 01:44:21 PM 21.0500 -156.9667 110° East 180 207 5,600 -700 Descending Honolulu Center
Tue 01:45:21 PM 21.0333 -156.9167 110° East 170 196 5,000 -450 Descending Honolulu Center
Tue 01:46:21 PM 21.0167 -156.8667 110° East 160 184 4,700 -149 Descending Honolulu Center
Tue 01:47:22 PM 21.0000 -156.8333 118° Southeast 150 173 4,700 -397 Level Honolulu Center
Tue 01:48:22 PM 21.0000 -156.7833 90° East 160 184 3,900 -850 Descending Honolulu Center
Tue 01:49:22 PM 20.9833 -156.7333 110° East 160 184 3,000 -900 Descending Honolulu Center

Login

Don't have an account? Register now (free) for customized features, flight alerts, and more!